createdAt,value
2023-01-29T00:03:54.996Z,49.40
2023-01-29T00:08:57.254Z,45.75
2023-01-29T00:13:59.300Z,46.95
2023-01-29T00:19:02.403Z,48.65
2023-01-29T00:24:04.807Z,45.63
2023-01-29T00:29:06.901Z,41.20
2023-01-29T00:34:08.972Z,45.17
2023-01-29T00:39:11.217Z,39.50
2023-01-29T00:44:32.182Z,37.20
2023-01-29T00:49:34.848Z,37.60
2023-01-29T00:54:37.160Z,39.72
2023-01-29T00:59:39.213Z,36.53
2023-01-29T01:04:41.489Z,38.50
2023-01-29T01:10:02.534Z,35.38
2023-01-29T01:15:04.984Z,34.38
2023-01-29T01:20:07.646Z,39.92
2023-01-29T01:25:09.810Z,38.95
2023-01-29T01:30:15.282Z,40.03
2023-01-29T01:35:17.645Z,39.67
2023-01-29T01:40:25.220Z,41.33
2023-01-29T01:45:36.336Z,38.15
2023-01-29T01:50:45.694Z,37.97
2023-01-29T01:55:52.324Z,41.30
2023-01-29T02:00:55.347Z,41.03
2023-01-29T02:06:18.708Z,42.08
2023-01-29T02:11:20.839Z,42.83
2023-01-29T02:16:23.704Z,43.45
2023-01-29T02:21:47.382Z,47.92
2023-01-29T02:26:59.824Z,44.83
2023-01-29T02:32:28.742Z,46.78
2023-01-29T02:37:39.664Z,44.42
2023-01-29T02:43:16.025Z,43.08
2023-01-29T02:48:22.453Z,46.35
2023-01-29T02:53:35.494Z,42.80
2023-01-29T02:58:47.727Z,46.08
2023-01-29T03:03:56.111Z,49.00
2023-01-29T03:09:09.303Z,44.72
2023-01-29T03:14:18.586Z,48.75
2023-01-29T03:19:29.199Z,43.70
2023-01-29T03:24:59.307Z,45.83
2023-01-29T03:30:26.731Z,47.08
2023-01-29T03:35:43.251Z,46.88
2023-01-29T03:41:09.824Z,47.20
2023-01-29T03:46:35.373Z,49.95
2023-01-29T03:52:25.453Z,46.65
2023-01-29T03:57:37.656Z,46.80
2023-01-29T04:02:50.843Z,48.53
2023-01-29T04:08:00.621Z,49.78
2023-01-29T04:13:08.897Z,47.10
2023-01-29T04:18:12.095Z,50.50
2023-01-29T04:23:33.551Z,49.97
2023-01-29T04:29:18.254Z,52.33
2023-01-29T04:34:28.231Z,48.33
2023-01-29T04:39:40.228Z,54.60
2023-01-29T04:44:59.528Z,52.22
2023-01-29T04:50:21.269Z,51.25
2023-01-29T04:55:36.426Z,50.30
2023-01-29T05:00:42.722Z,52.70
2023-01-29T05:05:47.991Z,50.67
2023-01-29T05:10:52.221Z,49.13
2023-01-29T05:16:13.200Z,50.08
2023-01-29T05:26:35.474Z,51.78
2023-01-29T05:31:37.685Z,47.72
2023-01-29T05:36:39.833Z,52.15
2023-01-29T05:41:42.179Z,51.08
2023-01-29T05:46:45.076Z,51.90
2023-01-29T05:51:47.317Z,52.42
2023-01-29T05:56:49.512Z,51.80
2023-01-29T06:01:51.734Z,50.38
2023-01-29T06:06:53.951Z,51.67
2023-01-29T06:11:55.985Z,49.58
2023-01-29T06:16:58.150Z,56.13
2023-01-29T06:22:00.327Z,50.38
2023-01-29T06:27:02.630Z,48.03
2023-01-29T06:32:05.083Z,47.90
2023-01-29T06:37:07.914Z,47.75
2023-01-29T06:42:11.107Z,47.35
2023-01-29T06:47:13.096Z,46.88
2023-01-29T06:52:15.214Z,44.28
2023-01-29T06:57:17.190Z,44.50
2023-01-29T07:02:19.243Z,44.03
2023-01-29T07:07:21.440Z,47.63
2023-01-29T07:12:23.465Z,43.70
2023-01-29T07:17:25.456Z,49.97
2023-01-29T07:22:27.553Z,44.85
2023-01-29T07:27:29.612Z,44.78
2023-01-29T07:32:31.728Z,42.88
2023-01-29T07:37:33.930Z,45.10
2023-01-29T07:42:36.476Z,43.03
2023-01-29T07:47:38.610Z,44.53
2023-01-29T07:52:41.892Z,43.25
2023-01-29T07:57:44.084Z,38.75
2023-01-29T08:02:46.108Z,42.78
2023-01-29T08:08:05.577Z,45.47
2023-01-29T08:13:09.119Z,40.33
2023-01-29T08:18:11.613Z,43.60
2023-01-29T08:23:15.802Z,44.10
2023-01-29T08:28:17.945Z,42.40
2023-01-29T08:33:29.855Z,47.17
2023-01-29T08:38:36.145Z,39.58
2023-01-29T08:43:38.581Z,40.03
2023-01-29T08:48:40.808Z,38.38
2023-01-29T08:53:43.084Z,40.00
2023-01-29T08:58:45.259Z,39.83
2023-01-29T09:03:47.414Z,39.45
2023-01-29T09:08:49.776Z,39.97
2023-01-29T09:13:52.121Z,36.28
2023-01-29T09:18:54.876Z,35.33
2023-01-29T09:23:57.047Z,36.75
2023-01-29T09:28:59.037Z,37.53
2023-01-29T09:34:01.360Z,37.85
2023-01-29T09:39:03.724Z,38.60
2023-01-29T09:44:16.817Z,37.10
2023-01-29T09:49:26.092Z,34.42
2023-01-29T09:54:40.918Z,35.47
2023-01-29T09:59:44.294Z,38.70
2023-01-29T10:04:55.558Z,38.25
2023-01-29T10:10:08.356Z,35.35
2023-01-29T10:15:22.324Z,34.83
2023-01-29T10:20:55.500Z,32.40
2023-01-29T10:25:57.924Z,37.63
2023-01-29T10:31:05.655Z,37.20
2023-01-29T10:36:16.708Z,38.08
2023-01-29T10:41:21.490Z,38.95
2023-01-29T10:46:43.579Z,36.72
2023-01-29T10:51:55.790Z,33.92
2023-01-29T10:57:19.586Z,33.53
2023-01-29T11:02:22.593Z,33.13
2023-01-29T11:07:24.973Z,35.78
2023-01-29T11:12:30.831Z,32.72
2023-01-29T11:17:33.036Z,31.45
2023-01-29T11:22:35.144Z,31.48
2023-01-29T11:27:46.853Z,35.10
2023-01-29T11:32:56.096Z,30.80
2023-01-29T11:38:15.793Z,35.25
2023-01-29T11:43:36.973Z,33.20
2023-01-29T11:53:51.170Z,36.22
2023-01-29T11:58:56.067Z,38.90
2023-01-29T12:03:58.680Z,38.28
2023-01-29T12:09:03.702Z,38.22
2023-01-29T12:14:22.117Z,39.53
2023-01-29T12:19:28.687Z,40.58
2023-01-29T12:24:36.457Z,41.55
2023-01-29T12:30:06.214Z,42.60
2023-01-29T12:35:33.051Z,39.47
2023-01-29T12:40:41.488Z,44.67
2023-01-29T12:45:47.976Z,40.35
2023-01-29T12:50:51.429Z,43.80
2023-01-29T12:56:09.587Z,44.10
2023-01-29T13:01:19.415Z,43.25
2023-01-29T13:06:28.568Z,43.95
2023-01-29T13:11:45.328Z,41.83
2023-01-29T13:16:52.640Z,42.83
2023-01-29T13:21:59.546Z,43.60
2023-01-29T13:27:01.736Z,43.83
2023-01-29T13:32:05.208Z,41.95
2023-01-29T13:37:28.014Z,43.55
2023-01-29T13:42:43.907Z,46.03
2023-01-29T13:47:46.324Z,45.92
2023-01-29T13:53:01.775Z,48.53
2023-01-29T13:58:06.853Z,47.05
2023-01-29T14:03:11.519Z,46.17
2023-01-29T14:08:13.569Z,45.55
2023-01-29T14:13:15.528Z,42.28
2023-01-29T14:18:20.173Z,42.53
2023-01-29T14:23:41.558Z,43.55
2023-01-29T14:28:51.328Z,40.47
2023-01-29T14:33:53.562Z,42.38
2023-01-29T14:38:59.301Z,39.60
2023-01-29T14:44:41.903Z,39.40
2023-01-29T14:49:52.702Z,39.65
2023-01-29T14:55:01.753Z,39.67
2023-01-29T15:00:19.223Z,41.33
2023-01-29T15:05:25.634Z,38.10
2023-01-29T15:10:40.007Z,36.50
2023-01-29T15:16:02.483Z,35.55
2023-01-29T15:21:11.976Z,34.80
2023-01-29T15:26:27.009Z,38.00
2023-01-29T15:31:29.537Z,35.92
2023-01-29T15:36:32.282Z,37.55
2023-01-29T15:41:34.368Z,39.70
2023-01-29T15:46:38.246Z,36.05
2023-01-29T15:51:40.710Z,39.33
2023-01-29T15:56:53.049Z,34.20
2023-01-29T16:01:56.281Z,36.03
2023-01-29T16:07:00.323Z,31.95
2023-01-29T16:12:02.876Z,42.85
2023-01-29T16:17:21.671Z,37.67
2023-01-29T16:22:25.043Z,36.65
2023-01-29T16:27:28.932Z,35.33
2023-01-29T16:32:31.503Z,31.95
2023-01-29T16:37:38.775Z,37.53
2023-01-29T16:42:41.615Z,35.85
2023-01-29T16:47:43.675Z,34.78
2023-01-29T16:52:57.994Z,35.53
2023-01-29T16:58:04.243Z,36.58
2023-01-29T17:03:07.650Z,38.28
2023-01-29T17:08:32.850Z,36.00
2023-01-29T17:13:38.960Z,35.38
2023-01-29T17:18:41.051Z,42.58
2023-01-29T17:23:43.359Z,40.80
2023-01-29T17:28:46.136Z,37.20
2023-01-29T17:33:48.455Z,36.97
2023-01-29T17:38:50.592Z,37.10
2023-01-29T17:43:52.899Z,39.22
2023-01-29T17:48:54.932Z,38.75
2023-01-29T17:53:57.068Z,39.80
2023-01-29T17:58:59.248Z,38.80
2023-01-29T18:04:01.621Z,37.72
2023-01-29T18:09:04.420Z,42.80
2023-01-29T18:14:13.768Z,42.22
2023-01-29T18:19:22.766Z,42.17
2023-01-29T18:24:26.570Z,44.72
2023-01-29T18:29:30.175Z,44.05
2023-01-29T18:34:32.212Z,49.60
2023-01-29T18:39:34.310Z,46.50
2023-01-29T18:44:36.475Z,46.92
2023-01-29T18:49:39.222Z,38.75
2023-01-29T18:54:41.465Z,44.05
2023-01-29T18:59:44.182Z,46.75
2023-01-29T19:04:47.267Z,46.58
2023-01-29T19:09:50.430Z,46.05
2023-01-29T19:14:52.552Z,40.85
2023-01-29T19:19:56.459Z,44.83
2023-01-29T19:24:58.673Z,48.55
2023-01-29T19:30:01.931Z,41.83
2023-01-29T19:35:04.945Z,48.45
2023-01-29T19:40:08.202Z,46.25
2023-01-29T19:45:10.394Z,47.35
2023-01-29T19:50:12.589Z,49.08
2023-01-29T19:55:16.404Z,50.88
2023-01-29T20:00:19.546Z,48.35
2023-01-29T20:05:23.378Z,51.28
2023-01-29T20:10:27.574Z,51.58
2023-01-29T20:15:29.696Z,52.95
2023-01-29T20:20:32.842Z,55.28
2023-01-29T20:25:35.693Z,50.45
2023-01-29T20:30:39.229Z,50.78
2023-01-29T20:35:41.424Z,49.25
2023-01-29T20:40:43.497Z,51.85
2023-01-29T20:45:45.581Z,54.03
2023-01-29T20:50:47.720Z,49.55
2023-01-29T20:55:49.799Z,48.10
2023-01-29T21:00:52.324Z,45.90
2023-01-29T21:05:57.482Z,50.47
2023-01-29T21:10:59.641Z,50.92
2023-01-29T21:16:02.253Z,53.38
2023-01-29T21:21:04.513Z,56.95
2023-01-29T21:26:07.174Z,59.03
2023-01-29T21:31:11.530Z,55.45
2023-01-29T21:36:13.738Z,56.13
2023-01-29T21:41:15.740Z,51.65
2023-01-29T21:46:17.842Z,55.08
2023-01-29T21:51:20.002Z,55.13
2023-01-29T21:56:22.102Z,54.88
2023-01-29T22:01:37.816Z,56.30
2023-01-29T22:06:40.617Z,51.72
2023-01-29T22:11:42.626Z,58.00
2023-01-29T22:16:45.629Z,55.08
2023-01-29T22:21:47.833Z,52.65
2023-01-29T22:26:50.154Z,60.47
2023-01-29T22:31:52.537Z,60.88
2023-01-29T22:36:54.782Z,63.50
2023-01-29T22:41:56.941Z,55.90
2023-01-29T22:46:59.588Z,59.40
2023-01-29T22:52:10.318Z,58.28
2023-01-29T22:57:14.500Z,60.78
2023-01-29T23:02:16.557Z,63.65
2023-01-29T23:07:18.697Z,61.40
2023-01-29T23:12:20.868Z,61.25
2023-01-29T23:17:22.913Z,60.53
2023-01-29T23:22:25.030Z,62.15
2023-01-29T23:27:27.102Z,59.17
2023-01-29T23:32:29.396Z,65.50
2023-01-29T23:37:31.451Z,58.85
2023-01-29T23:42:33.487Z,59.08
2023-01-29T23:47:35.531Z,65.07
2023-01-29T23:52:38.807Z,63.58
2023-01-29T23:57:40.816Z,65.65
